Time;durP1;ratioP1;P1;durP2;ratioP2;P2;SDS_P1;SDS_P2;PMS_P1;PMS_P2;Temp;Humidity;BMP_temperature;BMP_pressure;BME280_temperature;BME280_humidity;BME280_pressure;Samples;Min_cycle;Max_cycle;Signal;HPM_P1;HPM_P2
2020/12/20 00:00:27;;;;;;;377.65;285.15;;;;;;;;;;5091478;28;20154;-76
2020/12/20 00:03:31;;;;;;;366.52;283.55;;;;;;;;;;5091359;28;20039;-73
2020/12/20 00:06:40;;;;;;;392.63;301.90;;;;;;;;;;5091345;28;20039;-75
2020/12/20 00:09:44;;;;;;;379.27;289.95;;;;;;;;;;5091279;28;20043;-75
2020/12/20 00:12:48;;;;;;;377.40;285.40;;;;;;;;;;5091133;28;20079;-76
2020/12/20 00:15:53;;;;;;;385.50;289.65;;;;;;;;;;5091001;28;20509;-75
2020/12/20 00:18:57;;;;;;;375.38;287.38;;;;;;;;;;5091247;28;20122;-76
2020/12/20 00:22:03;;;;;;;363.02;283.05;;;;;;;;;;5091316;28;20051;-76
2020/12/20 00:25:07;;;;;;;367.75;283.17;;;;;;;;;;5091194;28;20051;-76
2020/12/20 00:28:12;;;;;;;391.77;291.90;;;;;;;;;;5091258;28;20039;-74
2020/12/20 00:31:19;;;;;;;415.88;306.60;;;;;;;;;;5091126;28;20395;-74
2020/12/20 00:34:23;;;;;;;408.85;303.95;;;;;;;;;;5091281;28;20067;-73
2020/12/20 00:37:28;;;;;;;389.67;292.85;;;;;;;;;;5091329;28;20298;-73
2020/12/20 00:40:33;;;;;;;366.58;281.63;;;;;;;;;;5078761;28;20042;-73
2020/12/20 00:43:37;;;;;;;362.80;276.67;;;;;;;;;;5091037;28;20047;-76
2020/12/20 00:46:41;;;;;;;365.65;280.08;;;;;;;;;;5090993;28;20047;-73
2020/12/20 00:49:46;;;;;;;364.42;279.88;;;;;;;;;;5090684;28;20067;-75
2020/12/20 00:52:50;;;;;;;357.88;271.70;;;;;;;;;;5078197;28;20079;-75
2020/12/20 00:55:55;;;;;;;361.45;279.75;;;;;;;;;;5090739;28;20039;-73
2020/12/20 00:58:59;;;;;;;356.65;275.80;;;;;;;;;;5078428;28;20392;-75
2020/12/20 01:02:04;;;;;;;369.92;278.02;;;;;;;;;;5078336;28;20051;-75
2020/12/20 01:05:09;;;;;;;345.73;269.27;;;;;;;;;;5078604;28;20383;-75
2020/12/20 01:08:14;;;;;;;358.77;275.15;;;;;;;;;;5078410;28;20202;-75
2020/12/20 01:11:20;;;;;;;356.95;276.55;;;;;;;;;;5078404;28;20391;-75
2020/12/20 01:14:25;;;;;;;351.40;274.05;;;;;;;;;;5078370;28;20055;-75
2020/12/20 01:17:36;;;;;;;;;;;;;;;;;;5079295;28;20035;-75
2020/12/20 01:20:43;;;;;;;360.13;269.48;;;;;;;;;;5081726;28;19923;-75
2020/12/20 01:23:48;;;;;;;355.30;273.52;;;;;;;;;;5094386;28;20042;-76
2020/12/20 01:26:52;;;;;;;352.80;271.58;;;;;;;;;;5081765;28;20384;-75
2020/12/20 01:29:58;;;;;;;365.80;277.15;;;;;;;;;;5081685;28;20043;-75
2020/12/20 01:33:03;;;;;;;356.58;273.38;;;;;;;;;;5081528;28;20050;-76
2020/12/20 01:36:11;;;;;;;362.48;278.90;;;;;;;;;;5081665;28;20039;-75
2020/12/20 01:39:17;;;;;;;352.88;271.23;;;;;;;;;;5081215;28;20521;-75
2020/12/20 01:42:21;;;;;;;353.05;272.65;;;;;;;;;;5093999;28;20394;-75
2020/12/20 01:45:29;;;;;;;354.00;269.98;;;;;;;;;;5081110;28;20047;-75
2020/12/20 01:48:33;;;;;;;350.02;266.33;;;;;;;;;;5081469;28;20359;-75
2020/12/20 01:51:37;;;;;;;349.98;267.38;;;;;;;;;;5081123;28;20051;-76
2020/12/20 01:54:50;;;;;;;343.95;263.40;;;;;;;;;;5081157;28;20051;-75
2020/12/20 01:58:01;;;;;;;351.60;266.85;;;;;;;;;;5081054;28;20182;-75
2020/12/20 02:01:20;;;;;;;336.17;256.92;;;;;;;;;;5081174;28;20047;-75
2020/12/20 02:04:32;;;;;;;340.95;262.25;;;;;;;;;;5081044;28;20059;-75
2020/12/20 02:07:36;;;;;;;326.52;255.35;;;;;;;;;;5080659;28;20055;-75
2020/12/20 02:10:41;;;;;;;333.15;254.88;;;;;;;;;;5080883;28;20047;-75
2020/12/20 02:13:48;;;;;;;346.17;264.95;;;;;;;;;;5080503;28;20078;-75
2020/12/20 02:16:53;;;;;;;347.30;264.23;;;;;;;;;;5080843;28;20051;-74
2020/12/20 02:19:57;;;;;;;330.65;257.05;;;;;;;;;;5080208;28;20399;-75
2020/12/20 02:23:50;;;;;;;328.35;254.10;;;;;;;;;;5093091;28;20055;-74
2020/12/20 02:26:57;;;;;;;320.50;248.82;;;;;;;;;;5080601;28;20055;-75
2020/12/20 02:30:03;;;;;;;321.48;246.88;;;;;;;;;;5080440;28;20293;-75
2020/12/20 02:33:07;;;;;;;312.60;245.35;;;;;;;;;;5080369;28;20058;-75
2020/12/20 02:36:12;;;;;;;303.88;235.88;;;;;;;;;;5080427;28;20047;-75
2020/12/20 02:39:18;;;;;;;302.52;237.48;;;;;;;;;;5080258;28;20394;-75
2020/12/20 02:42:35;;;;;;;283.98;225.20;;;;;;;;;;5079939;28;20094;-74
2020/12/20 02:45:39;;;;;;;297.83;230.85;;;;;;;;;;5080239;28;20498;-75
2020/12/20 02:48:45;;;;;;;291.75;223.50;;;;;;;;;;5068532;28;20408;-75
2020/12/20 02:51:50;;;;;;;294.98;225.30;;;;;;;;;;5080005;28;20393;-75
2020/12/20 02:54:55;;;;;;;281.23;217.13;;;;;;;;;;5079990;28;20055;-75
2020/12/20 02:58:11;;;;;;;267.90;204.23;;;;;;;;;;5079859;28;20498;-75
2020/12/20 03:01:25;;;;;;;262.65;199.27;;;;;;;;;;5079786;28;20046;-75
2020/12/20 03:04:30;;;;;;;263.02;191.15;;;;;;;;;;5079960;28;20525;-74
2020/12/20 03:07:35;;;;;;;246.85;175.73;;;;;;;;;;5079821;28;20043;-74
2020/12/20 03:10:41;;;;;;;234.00;170.07;;;;;;;;;;5079677;28;20414;-74
2020/12/20 03:13:45;;;;;;;239.10;172.40;;;;;;;;;;5079666;28;20047;-74
2020/12/20 03:16:50;;;;;;;229.35;168.07;;;;;;;;;;5079609;28;20270;-74
2020/12/20 03:19:55;;;;;;;215.80;153.30;;;;;;;;;;5079333;28;20058;-74
2020/12/20 03:22:59;;;;;;;224.05;159.80;;;;;;;;;;5079555;28;20403;-74
2020/12/20 03:26:42;;;;;;;204.48;148.80;;;;;;;;;;5091948;28;20054;-74
2020/12/20 03:30:09;;;;;;;185.07;131.32;;;;;;;;;;5078856;28;20039;-74
2020/12/20 03:33:46;;;;;;;200.50;138.20;;;;;;;;;;5067545;28;20050;-74
2020/12/20 03:37:15;;;;;;;193.48;138.57;;;;;;;;;;5079296;28;20047;-75
2020/12/20 03:40:30;;;;;;;183.23;132.85;;;;;;;;;;5078790;28;20399;-75
2020/12/20 03:43:35;;;;;;;176.95;127.50;;;;;;;;;;5079160;28;20071;-74
2020/12/20 03:46:39;;;;;;;180.95;126.25;;;;;;;;;;5078991;28;20051;-74
2020/12/20 03:49:44;;;;;;;176.02;125.60;;;;;;;;;;5078805;28;20047;-74
2020/12/20 03:52:49;;;;;;;188.48;130.13;;;;;;;;;;5078811;28;20310;-74
2020/12/20 03:55:58;;;;;;;183.98;129.38;;;;;;;;;;5078932;28;20067;-74
2020/12/20 03:59:04;;;;;;;190.25;134.43;;;;;;;;;;5078852;28;20043;-74
2020/12/20 04:02:10;;;;;;;187.13;132.82;;;;;;;;;;5079080;28;20506;-75
2020/12/20 04:05:15;;;;;;;176.20;127.85;;;;;;;;;;5079210;28;20047;-74
2020/12/20 04:08:21;;;;;;;173.70;126.05;;;;;;;;;;5078843;28;20035;-74
2020/12/20 04:11:40;;;;;;;179.23;127.93;;;;;;;;;;5078526;28;20250;-74
2020/12/20 04:14:45;;;;;;;184.48;133.18;;;;;;;;;;5078479;28;20063;-74
2020/12/20 04:17:49;;;;;;;155.60;113.00;;;;;;;;;;5078995;28;20058;-74
2020/12/20 04:20:54;;;;;;;147.30;107.72;;;;;;;;;;5078389;28;20305;-74
2020/12/20 04:23:59;;;;;;;145.60;108.53;;;;;;;;;;5078865;28;20043;-75
2020/12/20 04:27:05;;;;;;;146.50;105.93;;;;;;;;;;5078831;28;20062;-74
2020/12/20 04:30:14;;;;;;;139.13;101.40;;;;;;;;;;5078375;28;20392;-74
2020/12/20 04:33:19;;;;;;;142.93;104.90;;;;;;;;;;5078479;28;20071;-74
2020/12/20 04:36:26;;;;;;;137.73;102.03;;;;;;;;;;5078182;28;20059;-74
2020/12/20 04:39:35;;;;;;;133.65;97.30;;;;;;;;;;5078144;28;20043;-75
2020/12/20 04:42:41;;;;;;;138.50;95.38;;;;;;;;;;5078508;28;20403;-74
2020/12/20 04:45:47;;;;;;;137.50;98.25;;;;;;;;;;5078242;28;20502;-75
2020/12/20 04:49:01;;;;;;;138.15;96.45;;;;;;;;;;5078505;28;20051;-73
2020/12/20 04:52:09;;;;;;;136.05;92.90;;;;;;;;;;5078285;28;20051;-73
2020/12/20 04:55:15;;;;;;;141.45;104.47;;;;;;;;;;5082053;28;20413;-73
2020/12/20 04:58:39;;;;;;;161.88;113.18;;;;;;;;;;5094788;28;20043;-74
2020/12/20 05:01:43;;;;;;;147.25;104.32;;;;;;;;;;5082301;28;20043;-74
2020/12/20 05:04:48;;;;;;;158.25;110.63;;;;;;;;;;5081928;28;20054;-75
2020/12/20 05:07:55;;;;;;;152.02;107.80;;;;;;;;;;5082025;28;20420;-75
2020/12/20 05:11:00;;;;;;;151.18;103.05;;;;;;;;;;5081854;28;20059;-76
2020/12/20 05:14:09;;;;;;;149.80;101.07;;;;;;;;;;5081657;28;20055;-76
2020/12/20 05:17:30;;;;;;;140.83;98.07;;;;;;;;;;5081898;28;20391;-75
2020/12/20 05:20:54;;;;;;;138.43;98.90;;;;;;;;;;5073057;28;20075;-75
2020/12/20 05:24:00;;;;;;;138.48;98.57;;;;;;;;;;5073125;28;20048;-75
2020/12/20 05:27:20;;;;;;;137.40;95.47;;;;;;;;;;5073182;28;20043;-76
2020/12/20 05:30:25;;;;;;;139.88;94.20;;;;;;;;;;5072953;28;20495;-76
2020/12/20 05:33:49;;;;;;;128.52;90.18;;;;;;;;;;5073631;28;20047;-75
2020/12/20 05:37:08;;;;;;;124.10;88.22;;;;;;;;;;5072926;28;20039;-76
2020/12/20 05:40:35;;;;;;;117.53;81.85;;;;;;;;;;5072675;28;20047;-75
2020/12/20 05:43:41;;;;;;;113.55;81.35;;;;;;;;;;5072691;28;20531;-75
2020/12/20 05:46:47;;;;;;;114.03;77.70;;;;;;;;;;5072754;28;20515;-75
2020/12/20 05:49:52;;;;;;;106.53;74.45;;;;;;;;;;5072649;28;20047;-76
2020/12/20 05:53:01;;;;;;;109.70;76.07;;;;;;;;;;5072394;28;20048;-75
2020/12/20 05:56:05;;;;;;;103.38;73.95;;;;;;;;;;5073465;28;20047;-75
2020/12/20 05:59:12;;;;;;;110.20;75.15;;;;;;;;;;5073726;28;20047;-75
2020/12/20 06:02:17;;;;;;;102.68;71.35;;;;;;;;;;5073559;28;20043;-75
2020/12/20 06:05:22;;;;;;;101.10;70.07;;;;;;;;;;5072770;28;20154;-75
2020/12/20 06:08:31;;;;;;;100.10;72.78;;;;;;;;;;5073259;28;20124;-75
2020/12/20 06:11:36;;;;;;;104.78;73.82;;;;;;;;;;5073228;28;20048;-75
2020/12/20 06:14:42;;;;;;;110.90;70.85;;;;;;;;;;5072243;28;20047;-76
2020/12/20 06:17:55;;;;;;;106.35;70.15;;;;;;;;;;5072969;28;20048;-75
2020/12/20 06:21:01;;;;;;;92.10;65.15;;;;;;;;;;5082576;28;20055;-74
2020/12/20 06:24:08;;;;;;;93.75;63.42;;;;;;;;;;5092902;28;20039;-75
2020/12/20 06:27:14;;;;;;;96.95;63.42;;;;;;;;;;5093244;28;20046;-75
2020/12/20 06:30:21;;;;;;;91.93;62.92;;;;;;;;;;5092977;28;20043;-75
2020/12/20 06:33:35;;;;;;;95.25;62.80;;;;;;;;;;5092670;28;20051;-75
2020/12/20 06:36:39;;;;;;;86.60;57.42;;;;;;;;;;5092842;28;20055;-74
2020/12/20 06:39:43;;;;;;;92.93;59.45;;;;;;;;;;5080370;28;20051;-73
2020/12/20 06:42:49;;;;;;;87.43;59.15;;;;;;;;;;5092639;28;20043;-76
2020/12/20 06:45:53;;;;;;;88.57;57.75;;;;;;;;;;5093014;28;20047;-76
2020/12/20 06:48:57;;;;;;;80.53;55.80;;;;;;;;;;5093036;28;20063;-76
2020/12/20 06:52:22;;;;;;;80.22;54.30;;;;;;;;;;5092877;28;20051;-73
2020/12/20 06:55:26;;;;;;;95.13;56.15;;;;;;;;;;5092654;28;20059;-73
2020/12/20 06:58:34;;;;;;;76.10;52.38;;;;;;;;;;5080253;28;20085;-75
2020/12/20 07:01:39;;;;;;;77.60;51.08;;;;;;;;;;5092316;28;20047;-76
2020/12/20 07:04:43;;;;;;;74.13;50.97;;;;;;;;;;5092425;28;20506;-75
2020/12/20 07:08:07;;;;;;;82.03;57.92;;;;;;;;;;5092464;28;20035;-75
2020/12/20 07:11:18;;;;;;;90.18;59.17;;;;;;;;;;5092286;28;20063;-75
2020/12/20 07:14:23;;;;;;;95.68;63.40;;;;;;;;;;5091787;28;20059;-75
2020/12/20 07:17:29;;;;;;;97.25;64.28;;;;;;;;;;5091920;28;20047;-73
2020/12/20 07:20:34;;;;;;;92.47;63.22;;;;;;;;;;5091492;28;20051;-74
2020/12/20 07:23:39;;;;;;;92.10;61.10;;;;;;;;;;5092196;28;20502;-74
2020/12/20 07:26:47;;;;;;;80.72;55.47;;;;;;;;;;5091676;28;20043;-73
2020/12/20 07:29:51;;;;;;;90.97;56.90;;;;;;;;;;5091828;28;20047;-75
2020/12/20 07:32:56;;;;;;;86.38;59.22;;;;;;;;;;5091801;28;20521;-74
2020/12/20 07:36:02;;;;;;;87.65;57.05;;;;;;;;;;5091935;28;20035;-75
2020/12/20 07:39:06;;;;;;;86.40;55.67;;;;;;;;;;5092112;28;20502;-76
2020/12/20 07:42:11;;;;;;;105.78;67.47;;;;;;;;;;5091854;28;20043;-75
2020/12/20 07:45:16;;;;;;;88.03;57.03;;;;;;;;;;5091552;28;20495;-75
2020/12/20 07:48:24;;;;;;;77.80;50.03;;;;;;;;;;5091618;28;20043;-75
2020/12/20 07:51:28;;;;;;;72.13;48.45;;;;;;;;;;5091520;28;20514;-69
2020/12/20 07:54:33;;;;;;;78.85;51.42;;;;;;;;;;5091162;28;20046;-71
2020/12/20 07:57:37;;;;;;;81.57;53.05;;;;;;;;;;5091633;28;20047;-71
2020/12/20 08:00:44;;;;;;;72.65;48.72;;;;;;;;;;5091029;28;20051;-71
2020/12/20 08:03:48;;;;;;;77.20;55.13;;;;;;;;;;5091465;28;20387;-71
2020/12/20 08:06:53;;;;;;;78.40;50.03;;;;;;;;;;5091378;28;20101;-71
2020/12/20 08:09:57;;;;;;;78.75;52.65;;;;;;;;;;5091193;28;20039;-71
2020/12/20 08:13:02;;;;;;;86.10;55.38;;;;;;;;;;5091084;28;20051;-72
2020/12/20 08:16:06;;;;;;;111.32;71.22;;;;;;;;;;5091211;28;20067;-71
2020/12/20 08:19:15;;;;;;;80.72;53.58;;;;;;;;;;5091205;28;20431;-69
2020/12/20 08:22:20;;;;;;;73.35;49.15;;;;;;;;;;5091049;28;20047;-70
2020/12/20 08:25:24;;;;;;;81.25;51.80;;;;;;;;;;5090549;28;20051;-70
2020/12/20 08:28:29;;;;;;;77.32;48.15;;;;;;;;;;5093758;28;20047;-70
2020/12/20 08:31:34;;;;;;;80.05;52.20;;;;;;;;;;5095306;28;20051;-70
2020/12/20 08:34:38;;;;;;;93.43;55.55;;;;;;;;;;5094878;28;20055;-70
2020/12/20 08:37:43;;;;;;;98.70;59.88;;;;;;;;;;5094952;28;20059;-70
2020/12/20 08:40:48;;;;;;;114.60;72.55;;;;;;;;;;5095155;28;20505;-70
2020/12/20 08:44:03;;;;;;;109.13;72.32;;;;;;;;;;5095202;28;20047;-70
2020/12/20 08:47:08;;;;;;;97.07;69.55;;;;;;;;;;5095000;28;20051;-70
2020/12/20 08:50:13;;;;;;;87.32;61.88;;;;;;;;;;5095466;28;20047;-70
2020/12/20 08:53:17;;;;;;;87.32;62.45;;;;;;;;;;5082521;28;20059;-70
2020/12/20 08:56:21;;;;;;;100.07;70.18;;;;;;;;;;5094912;28;20047;-70
2020/12/20 08:59:27;;;;;;;97.28;69.55;;;;;;;;;;5094625;28;20051;-70
2020/12/20 09:02:31;;;;;;;98.03;70.95;;;;;;;;;;5094932;28;20067;-70
2020/12/20 09:05:35;;;;;;;98.28;68.70;;;;;;;;;;5094700;28;20047;-70
2020/12/20 09:08:40;;;;;;;95.97;69.03;;;;;;;;;;5094752;28;20050;-70
2020/12/20 09:11:44;;;;;;;96.38;68.82;;;;;;;;;;5094566;28;20047;-71
2020/12/20 09:15:05;;;;;;;96.10;67.25;;;;;;;;;;5093862;28;20059;-70
2020/12/20 09:18:14;;;;;;;89.68;61.70;;;;;;;;;;5094572;28;20047;-70
2020/12/20 09:21:28;;;;;;;93.40;65.65;;;;;;;;;;5081538;28;20419;-70
2020/12/20 09:24:45;;;;;;;90.07;66.30;;;;;;;;;;5094115;28;20055;-71
2020/12/20 09:27:53;;;;;;;82.68;60.08;;;;;;;;;;5094556;28;20047;-70
2020/12/20 09:30:58;;;;;;;79.47;58.00;;;;;;;;;;5093990;28;20039;-70
2020/12/20 09:34:03;;;;;;;89.00;62.40;;;;;;;;;;5093633;28;20059;-70
2020/12/20 09:37:07;;;;;;;82.72;63.03;;;;;;;;;;5093926;28;20530;-70
2020/12/20 09:40:11;;;;;;;84.15;61.60;;;;;;;;;;5093261;28;20059;-70
2020/12/20 09:43:19;;;;;;;76.40;57.30;;;;;;;;;;5093708;28;20074;-70
2020/12/20 09:46:24;;;;;;;85.82;59.08;;;;;;;;;;5093827;28;20043;-70
2020/12/20 09:49:28;;;;;;;84.10;64.32;;;;;;;;;;5093720;28;20043;-70
2020/12/20 09:52:32;;;;;;;87.60;63.03;;;;;;;;;;5093886;28;20043;-70
2020/12/20 09:55:41;;;;;;;74.38;55.53;;;;;;;;;;5093725;28;20059;-70
2020/12/20 09:58:46;;;;;;;80.15;57.75;;;;;;;;;;5093554;28;20035;-70
2020/12/20 10:01:50;;;;;;;79.50;62.92;;;;;;;;;;5081051;28;20043;-70
2020/12/20 10:04:54;;;;;;;88.30;69.32;;;;;;;;;;5093438;28;20043;-70
2020/12/20 10:07:59;;;;;;;90.70;65.88;;;;;;;;;;5080983;28;20047;-70
2020/12/20 10:11:04;;;;;;;95.28;68.65;;;;;;;;;;5092956;28;20043;-70
2020/12/20 10:14:08;;;;;;;89.95;67.80;;;;;;;;;;5092780;28;20051;-70
2020/12/20 10:17:12;;;;;;;79.57;61.10;;;;;;;;;;5093311;28;20046;-70
2020/12/20 10:20:17;;;;;;;98.43;71.82;;;;;;;;;;5092742;28;20055;-70
2020/12/20 10:23:21;;;;;;;91.95;72.07;;;;;;;;;;5093165;28;20051;-70
2020/12/20 10:26:26;;;;;;;93.30;70.85;;;;;;;;;;5093000;28;20423;-71
2020/12/20 10:29:30;;;;;;;93.70;70.80;;;;;;;;;;5092759;28;20043;-69
2020/12/20 10:32:34;;;;;;;96.95;72.93;;;;;;;;;;5092954;28;20043;-71
2020/12/20 10:35:39;;;;;;;95.00;68.70;;;;;;;;;;5092805;28;20121;-71
2020/12/20 10:38:43;;;;;;;90.50;70.40;;;;;;;;;;5092291;28;20282;-71
2020/12/20 10:41:52;;;;;;;95.53;70.18;;;;;;;;;;5092901;28;20051;-71
2020/12/20 10:44:57;;;;;;;87.30;66.82;;;;;;;;;;5092660;28;20102;-71
2020/12/20 10:48:01;;;;;;;91.15;68.85;;;;;;;;;;5092730;28;20055;-71
2020/12/20 10:51:07;;;;;;;93.10;70.88;;;;;;;;;;5091628;28;20079;-71
2020/12/20 10:54:11;;;;;;;85.47;67.05;;;;;;;;;;5092102;28;20435;-71
2020/12/20 10:57:15;;;;;;;83.20;63.58;;;;;;;;;;5092275;28;20047;-70
2020/12/20 11:00:22;;;;;;;82.85;64.22;;;;;;;;;;5092398;28;20207;-70
2020/12/20 11:03:26;;;;;;;85.90;63.83;;;;;;;;;;5092173;28;20043;-70
2020/12/20 11:06:30;;;;;;;89.63;65.78;;;;;;;;;;5092188;28;20051;-70
2020/12/20 11:09:35;;;;;;;80.82;62.75;;;;;;;;;;5091884;28;20059;-70
2020/12/20 11:12:39;;;;;;;79.40;60.13;;;;;;;;;;5091947;28;20294;-70
2020/12/20 11:15:46;;;;;;;80.75;58.50;;;;;;;;;;5091928;28;20051;-70
2020/12/20 11:18:50;;;;;;;71.40;54.15;;;;;;;;;;5079898;28;20047;-70
2020/12/20 11:21:55;;;;;;;72.28;50.80;;;;;;;;;;5091516;28;20051;-70
2020/12/20 11:24:59;;;;;;;58.10;46.00;;;;;;;;;;5091490;28;20051;-71
2020/12/20 11:28:03;;;;;;;63.05;44.67;;;;;;;;;;5091817;28;20463;-70
2020/12/20 11:31:08;;;;;;;54.90;41.20;;;;;;;;;;5091666;28;20039;-70
2020/12/20 11:34:13;;;;;;;55.50;38.33;;;;;;;;;;5091299;28;20047;-70
2020/12/20 11:37:17;;;;;;;50.80;37.88;;;;;;;;;;5092131;28;20047;-70
2020/12/20 11:40:21;;;;;;;51.10;36.67;;;;;;;;;;5091575;28;20047;-70
2020/12/20 11:43:25;;;;;;;51.63;37.40;;;;;;;;;;5091462;28;20530;-71
2020/12/20 11:46:30;;;;;;;49.65;36.97;;;;;;;;;;5091453;28;20459;-70
2020/12/20 11:49:34;;;;;;;47.40;35.55;;;;;;;;;;5091195;28;20039;-70
2020/12/20 11:52:40;;;;;;;45.05;32.33;;;;;;;;;;5079017;28;20051;-70
2020/12/20 11:55:44;;;;;;;41.13;30.38;;;;;;;;;;5091246;28;20050;-70
2020/12/20 11:58:49;;;;;;;37.08;26.17;;;;;;;;;;5091356;28;20045;-70
2020/12/20 12:01:53;;;;;;;41.13;27.63;;;;;;;;;;5090948;28;20047;-71
2020/12/20 12:04:58;;;;;;;33.97;25.45;;;;;;;;;;5091306;28;20047;-71
2020/12/20 12:08:03;;;;;;;40.65;24.70;;;;;;;;;;5091368;28;20063;-71
2020/12/20 12:11:07;;;;;;;33.78;24.67;;;;;;;;;;5090912;28;20051;-70
2020/12/20 12:14:11;;;;;;;34.72;24.20;;;;;;;;;;5091024;28;20059;-70
2020/12/20 12:17:16;;;;;;;33.22;23.40;;;;;;;;;;5091018;28;20051;-70
2020/12/20 12:20:21;;;;;;;31.98;23.65;;;;;;;;;;5090873;28;20059;-71
2020/12/20 12:23:26;;;;;;;29.85;22.45;;;;;;;;;;5091229;28;20044;-71
2020/12/20 12:26:30;;;;;;;34.10;26.60;;;;;;;;;;5091222;28;20047;-70
2020/12/20 12:29:35;;;;;;;55.50;39.40;;;;;;;;;;5078636;28;20055;-70
2020/12/20 12:32:39;;;;;;;41.00;27.30;;;;;;;;;;5090687;28;20043;-70
2020/12/20 12:35:43;;;;;;;73.47;44.17;;;;;;;;;;5091053;28;20395;-70
2020/12/20 12:38:48;;;;;;;86.65;52.03;;;;;;;;;;5090938;28;20040;-70
2020/12/20 12:41:52;;;;;;;65.55;42.42;;;;;;;;;;5090894;28;20383;-70
2020/12/20 12:44:56;;;;;;;59.90;34.80;;;;;;;;;;5090731;28;20059;-70
2020/12/20 12:48:01;;;;;;;46.95;30.23;;;;;;;;;;5090856;28;20047;-70
2020/12/20 12:51:06;;;;;;;45.53;29.45;;;;;;;;;;5090711;28;20050;-70
2020/12/20 12:54:10;;;;;;;49.28;32.15;;;;;;;;;;5090721;28;20426;-70
2020/12/20 12:57:14;;;;;;;53.13;34.45;;;;;;;;;;5090745;28;20047;-69
2020/12/20 13:00:19;;;;;;;54.67;36.17;;;;;;;;;;5090699;28;20098;-69
2020/12/20 13:03:23;;;;;;;53.50;36.22;;;;;;;;;;5090621;28;20043;-70
2020/12/20 13:06:27;;;;;;;47.10;30.98;;;;;;;;;;5090588;28;20039;-70
2020/12/20 13:09:31;;;;;;;42.55;27.23;;;;;;;;;;5090446;28;20043;-69
2020/12/20 13:12:37;;;;;;;43.17;28.25;;;;;;;;;;5090861;28;20050;-69
2020/12/20 13:15:41;;;;;;;39.40;26.70;;;;;;;;;;5094462;28;20051;-70
2020/12/20 13:18:45;;;;;;;39.17;25.98;;;;;;;;;;5094398;28;20288;-70
2020/12/20 13:21:49;;;;;;;32.50;20.23;;;;;;;;;;5094164;28;20047;-70
2020/12/20 13:24:54;;;;;;;30.25;19.13;;;;;;;;;;5094160;28;20525;-71
2020/12/20 13:27:58;;;;;;;64.03;48.45;;;;;;;;;;5081834;28;20043;-70
2020/12/20 13:31:03;;;;;;;48.58;33.50;;;;;;;;;;5094011;28;20046;-70
2020/12/20 13:34:07;;;;;;;34.72;23.65;;;;;;;;;;5093801;28;20047;-70
2020/12/20 13:37:11;;;;;;;43.75;28.92;;;;;;;;;;5094211;28;20082;-70
2020/12/20 13:40:16;;;;;;;32.60;22.58;;;;;;;;;;5093907;28;20047;-70
2020/12/20 13:43:20;;;;;;;36.03;23.85;;;;;;;;;;5094068;28;20049;-70
2020/12/20 13:46:24;;;;;;;35.65;23.05;;;;;;;;;;5093616;28;20043;-70
2020/12/20 13:49:28;;;;;;;33.15;24.25;;;;;;;;;;5093942;28;20043;-70
2020/12/20 13:52:33;;;;;;;42.67;28.10;;;;;;;;;;5093894;28;20062;-70
2020/12/20 13:55:37;;;;;;;27.50;20.90;;;;;;;;;;5093701;28;20047;-70
2020/12/20 13:58:42;;;;;;;31.77;20.83;;;;;;;;;;5080888;28;20047;-69
2020/12/20 14:01:50;;;;;;;33.13;22.40;;;;;;;;;;5093656;28;20396;-70
2020/12/20 14:04:54;;;;;;;28.25;20.52;;;;;;;;;;5093550;28;20054;-70
2020/12/20 14:07:59;;;;;;;28.92;20.08;;;;;;;;;;5093484;28;20226;-70
2020/12/20 14:11:03;;;;;;;37.00;22.13;;;;;;;;;;5080968;28;20047;-69
2020/12/20 14:14:07;;;;;;;32.28;20.15;;;;;;;;;;5093201;28;20507;-69
2020/12/20 14:17:11;;;;;;;27.45;18.48;;;;;;;;;;5093018;28;20051;-69
2020/12/20 14:20:16;;;;;;;27.13;18.73;;;;;;;;;;5092968;28;20047;-69
2020/12/20 14:23:20;;;;;;;26.60;18.05;;;;;;;;;;5093127;28;20043;-70
2020/12/20 14:26:24;;;;;;;25.73;16.90;;;;;;;;;;5092844;28;20393;-71
2020/12/20 14:29:28;;;;;;;25.33;17.58;;;;;;;;;;5093078;28;20062;-71
2020/12/20 14:32:36;;;;;;;25.67;16.25;;;;;;;;;;5092994;28;20090;-70
2020/12/20 14:35:41;;;;;;;26.27;17.40;;;;;;;;;;5092548;28;20534;-69
2020/12/20 14:38:45;;;;;;;34.85;21.73;;;;;;;;;;5092755;28;20043;-69
2020/12/20 14:41:49;;;;;;;64.18;46.75;;;;;;;;;;5092694;28;20474;-69
2020/12/20 14:44:53;;;;;;;43.60;29.17;;;;;;;;;;5092573;28;20051;-69
2020/12/20 14:47:58;;;;;;;39.08;28.50;;;;;;;;;;5091874;28;20047;-69
2020/12/20 14:51:03;;;;;;;32.78;25.02;;;;;;;;;;5091670;28;20047;-69
2020/12/20 14:54:08;;;;;;;34.38;24.73;;;;;;;;;;5092159;28;20063;-69
2020/12/20 14:57:12;;;;;;;32.33;22.65;;;;;;;;;;5092501;28;20054;-69
2020/12/20 15:00:17;;;;;;;42.83;27.20;;;;;;;;;;5092467;28;20047;-69
2020/12/20 15:03:21;;;;;;;41.72;27.33;;;;;;;;;;5092411;28;20383;-70
2020/12/20 15:06:26;;;;;;;47.13;33.75;;;;;;;;;;5091451;28;20150;-76
2020/12/20 15:09:30;;;;;;;94.20;67.10;;;;;;;;;;5091496;28;20509;-73
2020/12/20 15:12:34;;;;;;;64.10;44.05;;;;;;;;;;5079442;28;20047;-72
2020/12/20 15:15:38;;;;;;;44.38;31.52;;;;;;;;;;5092353;28;20054;-70
2020/12/20 15:18:44;;;;;;;37.30;26.40;;;;;;;;;;5092142;28;20039;-70
2020/12/20 15:21:48;;;;;;;35.42;26.17;;;;;;;;;;5091925;28;20054;-71
2020/12/20 15:24:53;;;;;;;87.40;63.15;;;;;;;;;;5092163;28;20412;-72
2020/12/20 15:27:57;;;;;;;50.88;36.65;;;;;;;;;;5092184;28;20050;-72
2020/12/20 15:31:01;;;;;;;49.03;27.35;;;;;;;;;;5091768;28;20047;-72
2020/12/20 15:34:06;;;;;;;36.20;26.52;;;;;;;;;;5091913;28;20387;-71
2020/12/20 15:37:11;;;;;;;48.70;30.70;;;;;;;;;;5091450;28;20046;-70
2020/12/20 15:40:16;;;;;;;49.42;30.30;;;;;;;;;;5079424;28;20043;-70
2020/12/20 15:43:21;;;;;;;51.65;30.33;;;;;;;;;;5091453;28;20035;-71
2020/12/20 15:46:25;;;;;;;49.33;31.10;;;;;;;;;;5091886;28;20051;-70
2020/12/20 15:49:30;;;;;;;50.47;29.02;;;;;;;;;;5091524;28;20067;-70
2020/12/20 15:52:34;;;;;;;50.55;29.42;;;;;;;;;;5091306;28;20240;-70
2020/12/20 15:55:39;;;;;;;44.08;27.08;;;;;;;;;;5091272;28;20063;-70
2020/12/20 15:58:43;;;;;;;47.75;27.65;;;;;;;;;;5091180;28;20040;-71
2020/12/20 16:01:47;;;;;;;51.22;26.95;;;;;;;;;;5091298;28;20047;-69
2020/12/20 16:04:51;;;;;;;48.75;28.67;;;;;;;;;;5091209;28;20043;-70
2020/12/20 16:07:55;;;;;;;54.53;29.33;;;;;;;;;;5090803;28;20051;-70
2020/12/20 16:11:00;;;;;;;49.55;28.20;;;;;;;;;;5091150;28;20049;-70
2020/12/20 16:14:05;;;;;;;43.72;26.30;;;;;;;;;;5090786;28;20051;-69
2020/12/20 16:17:09;;;;;;;43.53;27.17;;;;;;;;;;5091090;28;20035;-70
2020/12/20 16:20:14;;;;;;;47.70;29.40;;;;;;;;;;5090733;28;20039;-69
2020/12/20 16:23:18;;;;;;;62.55;33.83;;;;;;;;;;5091086;28;20059;-70
2020/12/20 16:26:26;;;;;;;63.30;34.92;;;;;;;;;;5090547;28;20040;-73
2020/12/20 16:29:30;;;;;;;99.68;67.45;;;;;;;;;;5090798;28;20051;-76
2020/12/20 16:32:35;;;;;;;65.85;41.88;;;;;;;;;;5078308;28;20043;-75
2020/12/20 16:35:40;;;;;;;59.42;35.72;;;;;;;;;;5090454;28;20055;-76
2020/12/20 16:38:44;;;;;;;68.82;38.92;;;;;;;;;;5090706;28;20051;-75
2020/12/20 16:41:49;;;;;;;52.88;35.88;;;;;;;;;;5090901;28;20047;-75
2020/12/20 16:44:53;;;;;;;61.67;34.60;;;;;;;;;;5090881;28;20051;-76
2020/12/20 16:47:57;;;;;;;66.45;37.13;;;;;;;;;;5090769;28;20043;-75
2020/12/20 16:51:02;;;;;;;76.28;42.58;;;;;;;;;;5094801;28;20051;-76
2020/12/20 16:54:07;;;;;;;73.68;39.88;;;;;;;;;;5094608;28;20490;-75
2020/12/20 16:57:11;;;;;;;72.25;42.25;;;;;;;;;;5094808;28;20115;-76
2020/12/20 17:00:15;;;;;;;84.03;57.03;;;;;;;;;;5094175;28;20043;-73
2020/12/20 17:03:20;;;;;;;86.18;53.05;;;;;;;;;;5094662;28;20426;-72
2020/12/20 17:06:25;;;;;;;85.63;53.80;;;;;;;;;;5094793;28;20051;-76
2020/12/20 17:09:29;;;;;;;84.43;51.83;;;;;;;;;;5094386;28;20499;-75
2020/12/20 17:12:33;;;;;;;76.50;50.15;;;;;;;;;;5080780;28;20043;-77
2020/12/20 17:15:38;;;;;;;83.88;51.75;;;;;;;;;;5093852;28;20079;-76
2020/12/20 17:18:43;;;;;;;81.78;55.55;;;;;;;;;;5094226;28;20047;-76
2020/12/20 17:21:49;;;;;;;78.90;51.97;;;;;;;;;;5093719;28;20051;-76
2020/12/20 17:24:53;;;;;;;86.00;52.10;;;;;;;;;;5094288;28;20062;-75
2020/12/20 17:27:57;;;;;;;89.78;50.95;;;;;;;;;;5080781;28;20035;-76
2020/12/20 17:31:01;;;;;;;97.20;59.45;;;;;;;;;;5092575;28;20074;-76
2020/12/20 17:34:06;;;;;;;106.65;65.93;;;;;;;;;;5094064;28;20203;-75
2020/12/20 17:37:11;;;;;;;112.28;71.53;;;;;;;;;;5093380;28;20039;-75
2020/12/20 17:40:15;;;;;;;118.75;70.45;;;;;;;;;;5093577;28;20403;-75
2020/12/20 17:43:19;;;;;;;126.30;81.53;;;;;;;;;;5093911;28;20043;-75
2020/12/20 17:46:23;;;;;;;106.55;64.15;;;;;;;;;;5093813;28;20059;-76
2020/12/20 17:49:28;;;;;;;119.35;68.97;;;;;;;;;;5093502;28;20506;-75
2020/12/20 17:52:33;;;;;;;130.68;85.50;;;;;;;;;;5093301;28;20043;-76